Time;durP1;ratioP1;P1;durP2;ratioP2;P2;SDS_P1;SDS_P2;PMS_P1;PMS_P2;Temp;Humidity;BMP_temperature;BMP_pressure;BME280_temperature;BME280_humidity;BME280_pressure;Samples;Min_cycle;Max_cycle;Signal;HPM_P1;HPM_P2
2023/02/06 10:41:09;;;;;;;;;;;;;;;4.36;64.23;100021.78;4966767;23;19961;-65
2023/02/06 10:43:40;;;;;;;;;;;;;;;4.19;63.95;99999.50;4946489;29;20303;-65
2023/02/06 10:46:11;;;;;;;;;;;;;;;4.10;64.02;99993.63;4941208;29;20397;-64
2023/02/06 10:48:38;;;;;;;;;;;;;;;4.04;64.92;99990.19;4944583;28;19918;-64
2023/02/06 10:51:16;;;;;;;;;;;;;;;4.01;65.05;99994.59;4935491;29;19922;-64
2023/02/06 10:53:55;;;;;;;;;;;;;;;4.04;64.54;99998.00;4935220;29;19926;-64
2023/02/06 10:56:25;;;;;;;;;;;;;;;4.09;64.97;100004.84;4933737;29;19925;-64
2023/02/06 10:58:55;;;;;;;;;;;;;;;4.08;64.24;100003.16;4932503;29;19919;-64
2023/02/06 11:01:21;;;;;;;;;;;;;;;4.17;64.61;99995.25;4934703;29;19965;-65
2023/02/06 11:03:50;;;;;;;;;;;;;;;4.24;63.55;99982.13;4934559;29;19955;-65
2023/02/06 11:06:16;;;;;;;;;;;;;;;4.38;63.63;99973.28;4935664;29;20393;-65
2023/02/06 11:08:43;;;;;;;;;;;;;;;4.48;63.04;99970.53;4931503;29;19919;-65
2023/02/06 11:11:20;;;;;;;;;;;;;;;4.50;61.38;99968.72;4929921;29;19921;-68
2023/02/06 11:13:46;;;;;;;;;;;;;;;4.33;60.55;99964.69;4934880;29;19919;-68
2023/02/06 11:16:14;;;;;;;;;;;;;;;4.23;62.17;99963.97;4916444;29;19951;-68
2023/02/06 11:18:40;;;;;;;;;;;;;;;4.05;60.80;99963.34;4934631;29;19923;-68
2023/02/06 11:21:06;;;;;;;;;;;;;;;4.15;61.96;99971.88;4935120;29;19926;-68
2023/02/06 11:23:33;;;;;;;;;;;;;;;4.20;61.91;99974.44;4932870;29;20323;-68
2023/02/06 11:26:04;;;;;;;;;;;;;;;4.27;62.92;99971.72;4932988;29;19927;-68
2023/02/06 11:28:30;;;;;;;;;;;;;;;4.25;61.86;99973.47;4933115;29;20003;-67
2023/02/06 11:31:05;;;;;;;;;;;;;;;4.23;61.90;99974.34;4930174;29;20406;-68
2023/02/06 11:33:40;;;;;;;;;;;;;;;4.20;61.43;99972.69;4928521;29;19923;-68
2023/02/06 11:36:06;;;;;;;;;;;;;;;4.10;60.53;99968.50;4932619;29;19933;-68
2023/02/06 11:38:31;;;;;;;;;;;;;;;4.16;62.39;99970.13;4932990;29;19927;-68
2023/02/06 11:41:00;;;;;;;;;;;;;;;4.09;62.00;99963.31;4922603;29;19926;-68
2023/02/06 11:43:26;;;;;;;;;;;;;;;4.04;62.30;99953.00;4927530;29;19937;-68
2023/02/06 11:46:04;;;;;;;;;;;;;;;3.97;62.37;99957.41;4933451;29;19929;-68
2023/02/06 11:48:29;;;;;;;;;;;;;;;3.88;62.58;99947.16;4932151;29;19933;-68
2023/02/06 11:50:54;;;;;;;;;;;;;;;3.89;62.70;99959.28;4933064;29;19915;-68
2023/02/06 11:53:20;;;;;;;;;;;;;;;5.74;88.06;99965.59;4935070;29;20346;-63
2023/02/06 11:55:45;;;;;;;;;;;;;;;9.48;54.53;99947.16;4932710;29;20016;-66
2023/02/06 11:58:10;;;;;;;;;;;;;;;6.80;50.80;99948.41;4928735;29;19967;-67
2023/02/06 12:00:37;;;;;;;;;;;;;;;5.77;53.81;99949.91;4926920;29;20343;-66
2023/02/06 12:03:02;;;;;;;;;;;;;;;4.76;55.63;99955.31;4931978;29;19922;-65
2023/02/06 12:05:28;;;;;;;;;;;;;;;4.60;57.75;99963.41;4933691;29;19919;-66
2023/02/06 12:07:59;;;;;;;;;;;;;;;4.07;58.66;99975.47;4932860;29;19965;-66
2023/02/06 12:10:24;;;;;;;;;;;;;;;3.62;60.05;99960.47;4931864;29;19922;-66
2023/02/06 12:12:54;;;;;;;;;;;;;;;3.32;62.01;99948.72;4931685;29;19919;-66
2023/02/06 12:15:20;;;;;;;;;;;;;;;2.92;63.34;99937.91;4908789;29;20378;-67
2023/02/06 12:17:54;;;;;;;;;;;;;;;2.72;64.82;99935.50;4931698;29;20340;-64
2023/02/06 12:20:20;;;;;;;;;;;;;;;2.73;65.08;99940.69;4930602;29;19966;-67
2023/02/06 12:22:50;;;;;;;;;;;;;;;2.82;65.37;99926.78;4932074;29;20013;-66
2023/02/06 12:25:23;;;;;;;;;;;;;;;2.65;65.99;99921.78;4915870;29;19941;-67
2023/02/06 12:27:48;;;;;;;;;;;;;;;2.53;66.34;99919.28;4931237;29;19923;-65
2023/02/06 12:30:37;;;;;;;;;;;;;;;2.62;66.13;99911.44;4929656;29;19981;-65
2023/02/06 12:33:03;;;;;;;;;;;;;;;2.52;66.88;99910.66;4931005;29;19929;-66
2023/02/06 12:35:34;;;;;;;;;;;;;;;2.65;66.35;99913.13;4931454;29;19922;-67
2023/02/06 12:38:00;;;;;;;;;;;;;;;2.74;65.50;99911.31;4931406;29;19929;-66
2023/02/06 12:40:28;;;;;;;;;;;;;;;2.72;66.53;99917.38;4927809;29;19919;-63
2023/02/06 12:43:00;;;;;;;;;;;;;;;2.71;67.56;99913.06;4931497;29;19926;-63
2023/02/06 12:45:41;;;;;;;;;;;;;;;2.73;66.71;99919.09;4930644;29;19918;-66
2023/02/06 12:48:32;;;;;;;;;;;;;;;2.49;66.99;99918.44;4924818;29;19973;-66
2023/02/06 12:51:03;;;;;;;;;;;;;;;2.48;67.71;99921.91;4922578;29;19919;-65
2023/02/06 12:53:30;;;;;;;;;;;;;;;2.38;67.84;99928.03;4929729;29;20010;-65
2023/02/06 12:55:55;;;;;;;;;;;;;;;2.36;68.08;99914.25;4931282;29;19925;-63
2023/02/06 12:58:21;;;;;;;;;;;;;;;2.54;68.09;99916.66;4932088;29;20235;-66
2023/02/06 13:00:47;;;;;;;;;;;;;;;2.68;67.63;99905.31;4930383;29;19919;-65
2023/02/06 13:03:15;;;;;;;;;;;;;;;2.67;67.51;99904.47;4931245;29;20337;-65
2023/02/06 13:05:41;;;;;;;;;;;;;;;2.84;67.85;99906.91;4930229;29;19960;-66
2023/02/06 13:08:11;;;;;;;;;;;;;;;2.81;67.58;99909.50;4931907;29;19914;-67
2023/02/06 13:10:36;;;;;;;;;;;;;;;2.82;67.41;99904.34;4931268;29;20445;-67
2023/02/06 13:13:02;;;;;;;;;;;;;;;2.71;68.40;99907.88;4932281;29;20018;-67
2023/02/06 13:15:30;;;;;;;;;;;;;;;2.71;68.25;99905.28;4929247;29;20009;-66
2023/02/06 13:17:55;;;;;;;;;;;;;;;2.87;68.77;99906.88;4931498;29;19926;-68
2023/02/06 13:20:21;;;;;;;;;;;;;;;2.85;68.78;99908.59;4931202;29;19922;-68
2023/02/06 13:22:49;;;;;;;;;;;;;;;3.06;69.30;99903.22;4931307;29;20419;-68
2023/02/06 13:25:30;;;;;;;;;;;;;;;3.24;68.44;99901.28;4925942;29;19919;-67
2023/02/06 13:27:55;;;;;;;;;;;;;;;3.32;67.81;99913.28;4931206;29;19954;-68
2023/02/06 13:30:29;;;;;;;;;;;;;;;3.37;67.10;99905.41;4931729;29;20445;-67
2023/02/06 13:32:55;;;;;;;;;;;;;;;3.30;67.96;99916.75;4932348;29;19915;-67
2023/02/06 13:35:21;;;;;;;;;;;;;;;3.20;68.09;99916.03;4927188;29;19925;-69
2023/02/06 13:37:47;;;;;;;;;;;;;;;3.27;67.77;99917.66;4937451;29;19969;-69
2023/02/06 13:40:15;;;;;;;;;;;;;;;3.27;68.79;99906.44;4931590;29;20335;-68
2023/02/06 13:42:40;;;;;;;;;;;;;;;3.38;68.13;99909.75;4930809;29;19934;-66
2023/02/06 13:45:05;;;;;;;;;;;;;;;3.51;68.04;99915.63;4929944;29;19919;-66
2023/02/06 13:47:48;;;;;;;;;;;;;;;3.66;68.49;99906.81;4929530;29;19931;-66
2023/02/06 13:50:25;;;;;;;;;;;;;;;3.64;67.28;99913.75;4931616;29;19923;-67
2023/02/06 13:52:56;;;;;;;;;;;;;;;3.72;67.64;99901.53;4932252;29;19942;-69
2023/02/06 13:55:40;;;;;;;;;;;;;;;3.77;66.47;99895.38;4931920;29;20390;-67
2023/02/06 13:58:28;;;;;;;;;;;;;;;3.81;66.43;99893.59;4923402;29;19923;-66
2023/02/06 14:00:53;;;;;;;;;;;;;;;4.94;88.37;99889.13;4934223;29;19918;-67
2023/02/06 14:03:27;;;;;;;;;;;;;;;4.27;65.32;99893.78;4926610;29;19934;-65
2023/02/06 14:05:55;;;;;;;;;;;;;;;3.93;65.31;99888.25;4930735;29;19925;-65
2023/02/06 14:08:23;;;;;;;;;;;;;;;3.75;65.86;99885.91;4931032;29;20009;-65
2023/02/06 14:10:54;;;;;;;;;;;;;;;3.62;66.48;99884.38;4932675;29;19923;-64
2023/02/06 14:13:20;;;;;;;;;;;;;;;3.65;66.82;99884.31;4935626;29;21796;-65
2023/02/06 14:15:45;;;;;;;;;;;;;;;3.62;66.50;99886.97;4932943;29;19919;-65
2023/02/06 14:18:19;;;;;;;;;;;;;;;3.42;68.39;99888.09;4935796;29;20014;-64
2023/02/06 14:20:48;;;;;;;;;;;;;;;3.27;68.10;99901.25;4935511;29;19915;-68
2023/02/06 14:23:23;;;;;;;;;;;;;;;3.32;68.31;99891.66;4931955;29;19979;-66
2023/02/06 14:25:51;;;;;;;;;;;;;;;3.02;68.13;99896.31;4940323;29;20375;-65
2023/02/06 14:28:25;;;;;;;;;;;;;;;3.05;68.19;99900.63;4935611;29;19930;-65
2023/02/06 14:30:55;;;;;;;;;;;;;;;3.01;68.29;99898.94;4934277;29;19982;-68
2023/02/06 14:33:28;;;;;;;;;;;;;;;2.89;69.90;99899.94;4931765;29;19934;-66
2023/02/06 14:36:03;;;;;;;;;;;;;;;3.04;70.27;99899.78;4931020;29;19923;-66
2023/02/06 14:38:37;;;;;;;;;;;;;;;3.17;70.19;99912.63;4937503;29;19922;-66
2023/02/06 14:41:03;;;;;;;;;;;;;;;3.24;69.11;99906.47;4933433;29;19923;-65
2023/02/06 14:43:29;;;;;;;;;;;;;;;3.29;69.07;99900.34;4934405;29;20049;-66
2023/02/06 14:45:55;;;;;;;;;;;;;;;3.29;68.39;99907.25;4932884;29;19974;-66
2023/02/06 14:48:33;;;;;;;;;;;;;;;3.37;68.41;99900.22;4929352;29;19923;-67
2023/02/06 14:50:59;;;;;;;;;;;;;;;3.29;68.39;99899.47;4932733;29;19918;-65
2023/02/06 14:53:31;;;;;;;;;;;;;;;3.39;69.41;99895.91;4934604;29;19927;-68
2023/02/06 14:56:08;;;;;;;;;;;;;;;3.47;68.92;99895.78;4932687;29;19958;-68
2023/02/06 14:58:34;;;;;;;;;;;;;;;3.26;68.29;99884.81;4933802;29;20310;-66
2023/02/06 15:01:11;;;;;;;;;;;;;;;2.98;69.16;99889.47;4931363;29;19931;-65
2023/02/06 15:03:38;;;;;;;;;;;;;;;2.95;69.91;99886.91;4933517;29;20065;-65
2023/02/06 15:06:11;;;;;;;;;;;;;;;2.98;69.76;99892.06;4933021;29;19930;-65
2023/02/06 15:08:36;;;;;;;;;;;;;;;2.94;69.79;99887.78;4934938;29;19976;-65
2023/02/06 15:11:02;;;;;;;;;;;;;;;2.91;69.26;99882.63;4933282;29;19961;-69
2023/02/06 15:13:37;;;;;;;;;;;;;;;2.90;68.60;99875.75;4934697;29;19922;-66
2023/02/06 15:16:03;;;;;;;;;;;;;;;2.74;69.98;99879.34;4933893;29;19926;-65
2023/02/06 15:18:28;;;;;;;;;;;;;;;2.66;70.01;99883.78;4934181;29;20318;-64
2023/02/06 15:20:58;;;;;;;;;;;;;;;2.58;70.74;99884.69;4932082;29;19926;-65
2023/02/06 15:23:28;;;;;;;;;;;;;;;2.64;71.09;99888.09;4930226;29;19919;-66
2023/02/06 15:26:15;;;;;;;;;;;;;;;2.76;70.90;99893.16;4931558;29;19922;-67
2023/02/06 15:28:41;;;;;;;;;;;;;;;2.69;70.88;99897.56;4927367;29;19919;-67
2023/02/06 15:31:13;;;;;;;;;;;;;;;2.70;70.25;99893.22;4918566;29;19919;-68
2023/02/06 15:33:39;;;;;;;;;;;;;;;2.56;71.07;99891.63;4931040;29;19923;-66
2023/02/06 15:36:04;;;;;;;;;;;;;;;2.45;71.20;99893.44;4932629;29;19918;-64
2023/02/06 15:38:30;;;;;;;;;;;;;;;2.49;71.80;99900.31;4935014;29;19945;-65
2023/02/06 15:40:56;;;;;;;;;;;;;;;2.54;72.33;99898.53;4932339;29;20325;-64
2023/02/06 15:43:25;;;;;;;;;;;;;;;2.57;72.02;99902.84;4932709;29;20295;-64
2023/02/06 15:45:57;;;;;;;;;;;;;;;2.53;71.80;99902.00;4933519;29;19923;-64
2023/02/06 15:48:37;;;;;;;;;;;;;;;2.40;71.76;99900.38;4932747;29;19922;-63
2023/02/06 15:51:15;;;;;;;;;;;;;;;2.39;72.19;99896.09;4932377;29;19923;-64
2023/02/06 15:53:40;;;;;;;;;;;;;;;2.32;72.97;99897.00;4926435;29;19979;-66
2023/02/06 15:56:07;;;;;;;;;;;;;;;2.37;73.08;99896.13;4935053;29;19914;-67
2023/02/06 15:58:32;;;;;;;;;;;;;;;2.29;72.96;99897.03;4934096;29;19923;-66
2023/02/06 16:00:57;;;;;;;;;;;;;;;2.26;73.23;99891.88;4935964;29;19911;-65
2023/02/06 16:03:24;;;;;;;;;;;;;;;2.16;73.32;99900.59;4927438;29;19929;-66
2023/02/06 16:05:50;;;;;;;;;;;;;;;2.16;73.26;99900.59;4935805;29;19950;-66
2023/02/06 16:08:27;;;;;;;;;;;;;;;2.21;73.85;99893.66;4933793;29;20383;-66
2023/02/06 16:10:53;;;;;;;;;;;;;;;2.10;73.72;99896.34;4928929;29;19953;-66
2023/02/06 16:13:19;;;;;;;;;;;;;;;2.06;74.16;99895.47;4925681;29;20371;-66
2023/02/06 16:16:03;;;;;;;;;;;;;;;2.12;74.27;99905.78;4934875;29;19938;-65
2023/02/06 16:18:29;;;;;;;;;;;;;;;2.18;74.62;99909.22;4934514;29;19915;-65
2023/02/06 16:21:13;;;;;;;;;;;;;;;2.21;73.89;99906.59;4945998;29;19979;-64
2023/02/06 16:23:45;;;;;;;;;;;;;;;2.24;74.93;99904.00;4931439;29;19919;-67
2023/02/06 16:26:30;;;;;;;;;;;;;;;2.22;74.19;99910.91;4929571;29;19923;-64
2023/02/06 16:29:03;;;;;;;;;;;;;;;2.13;74.68;99915.28;4936918;29;19915;-63
2023/02/06 16:31:29;;;;;;;;;;;;;;;2.28;80.67;99910.88;4931941;29;19923;-66
2023/02/06 16:33:55;;;;;;;;;;;;;;;2.20;76.32;99915.22;4933103;29;20390;-66
2023/02/06 16:36:20;;;;;;;;;;;;;;;2.20;75.86;99916.06;4930361;29;19926;-66
2023/02/06 16:38:46;;;;;;;;;;;;;;;2.22;74.98;99916.09;4928718;29;20309;-66
2023/02/06 16:41:24;;;;;;;;;;;;;;;2.18;75.24;99922.16;4932839;28;19926;-66
2023/02/06 16:43:49;;;;;;;;;;;;;;;2.19;75.12;99926.47;4930652;29;20021;-65
2023/02/06 16:46:15;;;;;;;;;;;;;;;2.20;74.96;99912.63;4931780;29;20005;-65
2023/02/06 16:48:40;;;;;;;;;;;;;;;2.20;74.87;99912.63;4931103;29;19926;-65
2023/02/06 16:51:05;;;;;;;;;;;;;;;2.17;75.85;99917.81;4931757;29;19919;-66
2023/02/06 16:53:30;;;;;;;;;;;;;;;2.17;75.22;99928.19;4927491;29;19926;-65
2023/02/06 16:55:55;;;;;;;;;;;;;;;2.17;75.24;99934.25;4928730;29;19919;-66
2023/02/06 16:58:21;;;;;;;;;;;;;;;2.18;75.43;99932.50;4932787;29;19923;-65
2023/02/06 17:00:47;;;;;;;;;;;;;;;2.20;75.40;99941.97;4931428;29;19919;-65
2023/02/06 17:03:14;;;;;;;;;;;;;;;2.15;76.22;99933.38;4930555;29;20390;-64
2023/02/06 17:05:40;;;;;;;;;;;;;;;2.11;75.96;99942.91;4929876;29;19926;-65
2023/02/06 17:08:12;;;;;;;;;;;;;;;2.14;75.54;99944.63;4933781;29;19926;-64
2023/02/06 17:10:37;;;;;;;;;;;;;;;2.18;76.01;99943.72;4922023;29;20413;-64
2023/02/06 17:13:02;;;;;;;;;;;;;;;2.24;76.09;99937.66;4930417;29;20021;-64
2023/02/06 17:15:28;;;;;;;;;;;;;;;2.26;75.47;99933.31;4929741;29;20375;-64
2023/02/06 17:17:53;;;;;;;;;;;;;;;2.25;74.60;99935.03;4931298;29;20306;-64
2023/02/06 17:20:21;;;;;;;;;;;;;;;2.16;74.06;99932.50;4931933;29;19918;-64
2023/02/06 17:22:46;;;;;;;;;;;;;;;2.13;75.56;99928.22;4931730;29;19923;-64
2023/02/06 17:25:12;;;;;;;;;;;;;;;2.18;76.80;99935.09;4934758;29;19925;-64
2023/02/06 17:27:37;;;;;;;;;;;;;;;2.21;76.26;99940.25;4933146;29;19923;-64
2023/02/06 17:30:03;;;;;;;;;;;;;;;2.23;76.75;99943.69;4933153;29;19918;-63
2023/02/06 17:32:28;;;;;;;;;;;;;;;2.26;76.52;99948.84;4931897;29;19926;-64
2023/02/06 17:34:56;;;;;;;;;;;;;;;2.26;75.74;99948.84;4932635;29;19919;-64
2023/02/06 17:37:22;;;;;;;;;;;;;;;2.28;76.04;99940.19;4932125;29;19969;-65
2023/02/06 17:39:48;;;;;;;;;;;;;;;2.29;77.02;99938.47;4932264;29;19954;-64
2023/02/06 17:42:13;;;;;;;;;;;;;;;2.27;75.45;99935.91;4928485;29;19918;-64
2023/02/06 17:44:38;;;;;;;;;;;;;;;2.30;76.53;99935.84;4927282;29;19966;-64
2023/02/06 17:47:04;;;;;;;;;;;;;;;2.32;76.85;99944.47;4929445;29;19923;-64
2023/02/06 17:49:29;;;;;;;;;;;;;;;2.35;76.51;99944.47;4927838;29;19982;-64
2023/02/06 17:51:55;;;;;;;;;;;;;;;2.36;75.02;99946.16;4926909;28;19923;-64
2023/02/06 17:54:20;;;;;;;;;;;;;;;2.25;75.01;99941.94;4932236;29;19923;-64
2023/02/06 17:56:45;;;;;;;;;;;;;;;2.34;75.60;99947.03;4929153;29;19938;-64
2023/02/06 17:59:11;;;;;;;;;;;;;;;2.33;75.27;99953.09;4932383;29;19966;-64
2023/02/06 18:01:36;;;;;;;;;;;;;;;2.38;75.69;99953.94;4933632;29;22377;-64
2023/02/06 18:04:02;;;;;;;;;;;;;;;2.41;76.19;99959.09;4932042;29;20361;-64
2023/02/06 18:06:28;;;;;;;;;;;;;;;2.44;75.58;99964.22;4933535;29;19948;-65
2023/02/06 18:08:54;;;;;;;;;;;;;;;2.43;74.95;99967.69;4931160;29;19931;-64
2023/02/06 18:11:19;;;;;;;;;;;;;;;2.48;76.03;99968.53;4934894;29;19926;-64
2023/02/06 18:13:45;;;;;;;;;;;;;;;2.50;76.34;99974.56;4932400;29;19919;-64
2023/02/06 18:16:14;;;;;;;;;;;;;;;2.54;75.86;99973.66;4932631;29;20017;-64
2023/02/06 18:18:39;;;;;;;;;;;;;;;2.55;75.72;99977.97;4930766;29;20434;-65
2023/02/06 18:21:05;;;;;;;;;;;;;;;2.58;75.60;99983.16;4933122;29;19918;-64
2023/02/06 18:23:30;;;;;;;;;;;;;;;2.60;75.69;99978.78;4932102;29;20374;-64
2023/02/06 18:25:59;;;;;;;;;;;;;;;2.61;75.52;99977.94;4927824;29;19923;-64
2023/02/06 18:28:24;;;;;;;;;;;;;;;2.64;75.91;99981.38;4931441;29;19918;-64
2023/02/06 18:30:49;;;;;;;;;;;;;;;2.63;75.56;99971.88;4927010;29;19930;-64
2023/02/06 18:33:15;;;;;;;;;;;;;;;2.63;74.71;99977.06;4934650;29;19915;-64
2023/02/06 18:35:41;;;;;;;;;;;;;;;2.65;75.31;99980.47;4934265;29;19954;-65
2023/02/06 18:38:08;;;;;;;;;;;;;;;2.65;75.40;99980.47;4931310;29;20013;-64
2023/02/06 18:40:34;;;;;;;;;;;;;;;2.64;75.15;99981.38;4932077;29;19965;-64
2023/02/06 18:42:59;;;;;;;;;;;;;;;2.64;74.44;99971.00;4926324;29;19962;-64
2023/02/06 18:45:25;;;;;;;;;;;;;;;2.64;74.25;99971.00;4925387;29;19923;-66
2023/02/06 18:47:50;;;;;;;;;;;;;;;2.58;73.77;99970.19;4929377;29;20109;-65
2023/02/06 18:50:15;;;;;;;;;;;;;;;2.53;74.02;99976.28;4927699;29;20023;-65
2023/02/06 18:52:41;;;;;;;;;;;;;;;2.53;74.89;99977.13;4929132;29;20002;-65
2023/02/06 18:55:06;;;;;;;;;;;;;;;2.56;75.61;99984.03;4932377;29;19926;-65
2023/02/06 18:57:32;;;;;;;;;;;;;;;2.53;74.15;99984.91;4932819;29;19918;-65
2023/02/06 18:59:57;;;;;;;;;;;;;;;2.55;74.71;99993.53;4934520;29;19922;-64
2023/02/06 19:02:23;;;;;;;;;;;;;;;2.57;75.28;99985.72;4937563;29;19974;-64
2023/02/06 19:04:48;;;;;;;;;;;;;;;2.59;76.10;99994.38;4937669;28;20006;-64
2023/02/06 19:07:15;;;;;;;;;;;;;;;2.63;76.17;99995.19;4936471;29;19923;-64
2023/02/06 19:09:40;;;;;;;;;;;;;;;2.64;75.68;99997.75;4934625;29;20298;-64
2023/02/06 19:12:05;;;;;;;;;;;;;;;2.65;76.22;100007.28;4935431;29;19919;-64
2023/02/06 19:14:30;;;;;;;;;;;;;;;2.65;74.66;100008.97;4937121;29;20401;-64
2023/02/06 19:16:57;;;;;;;;;;;;;;;2.65;74.34;100008.97;4934773;29;19922;-64
2023/02/06 19:19:22;;;;;;;;;;;;;;;2.64;74.87;100018.50;4934679;29;19918;-64
2023/02/06 19:21:47;;;;;;;;;;;;;;;2.65;75.81;100020.22;4933289;29;19926;-64
2023/02/06 19:24:13;;;;;;;;;;;;;;;2.64;74.62;100028.00;4936016;29;19923;-63
2023/02/06 19:26:38;;;;;;;;;;;;;;;2.61;74.77;100029.75;4931723;29;20366;-64
2023/02/06 19:29:03;;;;;;;;;;;;;;;2.57;74.43;100028.03;4932131;29;19966;-63
2023/02/06 19:31:30;;;;;;;;;;;;;;;2.59;75.03;100034.06;4928618;29;19926;-63
2023/02/06 19:33:57;;;;;;;;;;;;;;;2.58;74.00;100028.88;4935453;29;20010;-63
2023/02/06 19:36:22;;;;;;;;;;;;;;;2.56;74.12;100026.31;4932419;29;19927;-63
2023/02/06 19:38:48;;;;;;;;;;;;;;;2.55;73.89;100022.03;4934655;29;19938;-63
2023/02/06 19:41:14;;;;;;;;;;;;;;;2.53;74.25;100015.97;4933241;29;19923;-63
2023/02/06 19:43:39;;;;;;;;;;;;;;;2.53;73.87;100021.16;4934863;29;19919;-63
2023/02/06 19:46:06;;;;;;;;;;;;;;;2.51;72.84;100027.22;4930930;29;20299;-63
2023/02/06 19:48:31;;;;;;;;;;;;;;;2.50;73.22;100031.53;4934334;29;19919;-63
2023/02/06 19:51:02;;;;;;;;;;;;;;;2.49;71.92;100029.81;4934795;29;20121;-63
2023/02/06 19:53:28;;;;;;;;;;;;;;;2.45;70.24;100022.97;4936060;29;19922;-63
2023/02/06 19:55:53;;;;;;;;;;;;;;;2.35;69.29;100027.31;4933078;29;19966;-63
2023/02/06 19:58:18;;;;;;;;;;;;;;;2.34;69.79;100025.63;4934917;29;19918;-63
2023/02/06 20:00:44;;;;;;;;;;;;;;;2.33;69.78;100033.38;4912241;29;19926;-63
2023/02/06 20:03:09;;;;;;;;;;;;;;;2.30;69.28;100034.25;4934657;29;19923;-63
2023/02/06 20:05:34;;;;;;;;;;;;;;;2.23;68.02;100042.91;4936997;29;19919;-63
2023/02/06 20:07:59;;;;;;;;;;;;;;;2.17;67.66;100042.09;4933607;29;19919;-63
2023/02/06 20:10:25;;;;;;;;;;;;;;;2.14;67.92;100038.66;4935250;29;19915;-63
2023/02/06 20:12:52;;;;;;;;;;;;;;;2.08;68.37;100041.28;4934507;29;19922;-63
2023/02/06 20:15:17;;;;;;;;;;;;;;;2.04;67.79;100039.59;4934979;29;19919;-63
2023/02/06 20:17:42;;;;;;;;;;;;;;;2.02;67.75;100035.28;4934282;29;20275;-63
2023/02/06 20:20:08;;;;;;;;;;;;;;;2.03;68.11;100035.28;4934160;29;19926;-63
2023/02/06 20:22:33;;;;;;;;;;;;;;;1.99;67.41;100036.13;4919081;29;19985;-63
2023/02/06 20:24:58;;;;;;;;;;;;;;;1.95;66.13;100037.03;4932179;29;19926;-63
2023/02/06 20:27:24;;;;;;;;;;;;;;;1.95;67.15;100039.63;4931710;29;19950;-63
2023/02/06 20:29:49;;;;;;;;;;;;;;;1.94;67.39;100045.66;4933268;29;19919;-63
2023/02/06 20:32:15;;;;;;;;;;;;;;;1.97;68.11;100039.63;4948231;28;19919;-63
2023/02/06 20:34:40;;;;;;;;;;;;;;;1.91;65.71;100043.09;4935120;29;20058;-63
2023/02/06 20:37:05;;;;;;;;;;;;;;;1.87;66.04;100044.84;4931780;29;19997;-63
2023/02/06 20:39:31;;;;;;;;;;;;;;;1.79;63.93;100046.59;4937754;29;20061;-63
2023/02/06 20:41:56;;;;;;;;;;;;;;;1.77;64.62;100044.88;4936321;29;20028;-63
2023/02/06 20:44:21;;;;;;;;;;;;;;;1.69;65.25;100044.91;4934668;29;20302;-63
2023/02/06 20:46:46;;;;;;;;;;;;;;;1.67;66.14;100047.47;4933800;29;20310;-63
2023/02/06 20:49:21;;;;;;;;;;;;;;;1.63;65.48;100032.84;4927502;29;19973;-63
2023/02/06 20:51:48;;;;;;;;;;;;;;;1.56;66.04;100043.22;4931852;29;19965;-63
2023/02/06 20:54:13;;;;;;;;;;;;;;;1.77;74.28;100042.28;4930554;29;20311;-62
2023/02/06 20:56:38;;;;;;;;;;;;;;;1.64;68.59;100044.03;4934065;29;19919;-62
2023/02/06 20:59:04;;;;;;;;;;;;;;;1.57;67.69;100057.88;4927026;29;20014;-62
2023/02/06 21:01:30;;;;;;;;;;;;;;;1.51;67.86;100056.16;4933851;29;19926;-62
2023/02/06 21:03:56;;;;;;;;;;;;;;;1.43;67.31;100056.16;4934010;29;20072;-62
2023/02/06 21:06:22;;;;;;;;;;;;;;;1.33;67.09;100053.59;4933104;29;19955;-62
2023/02/06 21:08:48;;;;;;;;;;;;;;;1.28;66.36;100047.59;4933637;29;19919;-62
2023/02/06 21:11:14;;;;;;;;;;;;;;;1.25;68.56;100050.19;4929548;29;19919;-62
2023/02/06 21:13:39;;;;;;;;;;;;;;;1.19;68.39;100059.66;4924235;29;19925;-62
2023/02/06 21:16:04;;;;;;;;;;;;;;;1.28;72.39;100056.22;4932606;29;20010;-62
2023/02/06 21:18:30;;;;;;;;;;;;;;;1.69;79.97;100056.97;4929808;29;19962;-62
2023/02/06 21:20:55;;;;;;;;;;;;;;;2.17;83.57;100055.03;4929833;29;19934;-62
